Time;durP1;ratioP1;P1;durP2;ratioP2;P2;SDS_P1;SDS_P2;PMS_P1;PMS_P2;Temp;Humidity;BMP_temperature;BMP_pressure;BME280_temperature;BME280_humidity;BME280_pressure;Samples;Min_cycle;Max_cycle;Signal;HPM_P1;HPM_P2
2021/12/29 00:02:18;;;;;;;14.32;4.63;;;;;;;;;;5028785;28;44681;-82
2021/12/29 00:04:45;;;;;;;11.95;3.75;;;;;;;;;;5028615;28;44959;-83
2021/12/29 00:07:12;;;;;;;15.68;3.85;;;;;;;;;;5031660;28;44334;-82
2021/12/29 00:09:40;;;;;;;6.88;3.20;;;;;;;;;;5032584;28;42741;-82
2021/12/29 00:12:08;;;;;;;17.17;4.97;;;;;;;;;;5031252;28;45404;-82
2021/12/29 00:14:35;;;;;;;15.35;4.55;;;;;;;;;;5032959;28;43579;-82
2021/12/29 00:17:02;;;;;;;17.00;5.70;;;;;;;;;;5030679;28;42767;-82
2021/12/29 00:19:30;;;;;;;15.32;5.78;;;;;;;;;;5032313;28;45221;-83
2021/12/29 00:21:56;;;;;;;26.73;7.68;;;;;;;;;;5031464;28;45706;-82
2021/12/29 00:24:23;;;;;;;20.80;7.65;;;;;;;;;;5031887;28;42793;-83
2021/12/29 00:26:50;;;;;;;34.85;9.73;;;;;;;;;;5031763;28;43915;-83
2021/12/29 00:29:16;;;;;;;30.20;10.23;;;;;;;;;;5032545;28;43600;-83
2021/12/29 00:31:44;;;;;;;43.35;13.07;;;;;;;;;;5031074;28;43931;-83
2021/12/29 00:34:10;;;;;;;37.65;11.45;;;;;;;;;;5032328;28;43942;-83
2021/12/29 00:36:37;;;;;;;32.35;12.05;;;;;;;;;;5031206;28;42676;-83
2021/12/29 00:39:04;;;;;;;33.08;10.85;;;;;;;;;;5031880;28;42963;-83
2021/12/29 00:41:30;;;;;;;45.70;12.43;;;;;;;;;;5031858;28;45400;-83
2021/12/29 00:43:57;;;;;;;41.35;12.80;;;;;;;;;;5031263;28;42639;-83
2021/12/29 00:46:31;;;;;;;43.95;11.68;;;;;;;;;;5030418;28;45281;-83
2021/12/29 00:48:58;;;;;;;44.50;12.93;;;;;;;;;;5031676;28;44878;-83
2021/12/29 00:51:25;;;;;;;36.50;11.63;;;;;;;;;;5030881;28;44765;-83
2021/12/29 00:53:51;;;;;;;48.10;13.13;;;;;;;;;;5031412;28;44870;-83
2021/12/29 00:56:18;;;;;;;31.50;12.02;;;;;;;;;;5031407;28;42574;-83
2021/12/29 00:58:44;;;;;;;58.78;14.50;;;;;;;;;;5031786;28;44997;-82
2021/12/29 01:01:11;;;;;;;61.42;14.52;;;;;;;;;;5030413;28;43448;-82
2021/12/29 01:03:38;;;;;;;83.53;16.35;;;;;;;;;;5031973;28;43803;-83
2021/12/29 01:06:06;;;;;;;39.90;13.30;;;;;;;;;;5031269;28;44901;-83
2021/12/29 01:08:32;;;;;;;48.53;14.20;;;;;;;;;;5030590;28;42281;-83
2021/12/29 01:10:59;;;;;;;48.13;13.73;;;;;;;;;;5031703;28;42930;-82
2021/12/29 01:13:31;;;;;;;61.33;15.55;;;;;;;;;;5030771;28;42385;-83
2021/12/29 01:16:15;;;;;;;67.28;16.52;;;;;;;;;;5031429;28;44710;-83
2021/12/29 01:18:45;;;;;;;53.88;15.38;;;;;;;;;;5031117;28;42904;-82
2021/12/29 01:21:12;;;;;;;56.22;15.27;;;;;;;;;;5030163;28;42143;-83
2021/12/29 01:23:41;;;;;;;62.53;14.60;;;;;;;;;;5031606;28;42694;-83
2021/12/29 01:26:07;;;;;;;56.70;16.25;;;;;;;;;;5031145;28;44962;-83
2021/12/29 01:28:34;;;;;;;73.85;16.23;;;;;;;;;;5030790;28;44600;-83
2021/12/29 01:31:01;;;;;;;49.10;14.80;;;;;;;;;;5030850;28;45005;-82
2021/12/29 01:33:28;;;;;;;65.05;14.90;;;;;;;;;;5031411;28;43503;-84
2021/12/29 01:35:55;;;;;;;60.35;15.10;;;;;;;;;;5031304;28;45694;-84
2021/12/29 01:38:22;;;;;;;59.00;16.73;;;;;;;;;;5030939;28;44975;-83
2021/12/29 01:40:49;;;;;;;65.05;16.27;;;;;;;;;;5031289;28;45289;-83
2021/12/29 01:43:16;;;;;;;68.20;15.75;;;;;;;;;;5029495;28;44810;-83
2021/12/29 01:45:43;;;;;;;60.85;15.95;;;;;;;;;;5030767;28;42725;-83
2021/12/29 01:48:09;;;;;;;58.30;15.25;;;;;;;;;;5030567;28;42995;-83
2021/12/29 01:50:38;;;;;;;71.60;16.77;;;;;;;;;;5030157;28;44861;-83
2021/12/29 01:53:09;;;;;;;45.70;13.18;;;;;;;;;;5030142;28;44943;-83
2021/12/29 01:55:37;;;;;;;68.75;14.88;;;;;;;;;;5030047;28;43817;-83
2021/12/29 01:58:04;;;;;;;44.97;13.05;;;;;;;;;;5029665;28;44511;-82
2021/12/29 02:00:31;;;;;;;57.88;13.52;;;;;;;;;;5030956;28;42937;-82
2021/12/29 02:02:59;;;;;;;63.85;14.20;;;;;;;;;;5029120;28;44896;-83
2021/12/29 02:05:26;;;;;;;24.92;9.98;;;;;;;;;;5031259;28;42633;-83
2021/12/29 02:07:52;;;;;;;42.75;12.73;;;;;;;;;;5030533;28;44922;-83
2021/12/29 02:10:20;;;;;;;30.77;10.88;;;;;;;;;;5029806;28;42961;-82
2021/12/29 02:12:47;;;;;;;48.58;12.88;;;;;;;;;;5030005;28;43024;-83
2021/12/29 02:15:14;;;;;;;43.10;12.80;;;;;;;;;;5030885;28;44810;-83
2021/12/29 02:17:41;;;;;;;47.60;12.80;;;;;;;;;;5028964;28;45426;-82
2021/12/29 02:20:14;;;;;;;39.35;12.48;;;;;;;;;;5030413;28;44962;-83
2021/12/29 02:22:45;;;;;;;50.63;13.63;;;;;;;;;;5028885;28;44781;-81
2021/12/29 02:27:52;;;;;;;32.72;13.40;;;;;;;;;;5029778;28;42937;-81
2021/12/29 02:30:21;;;;;;;51.08;15.35;;;;;;;;;;5029981;28;45068;-81
2021/12/29 02:32:49;;;;;;;48.40;14.02;;;;;;;;;;5028916;28;42808;-82
2021/12/29 02:35:16;;;;;;;70.50;16.83;;;;;;;;;;5030373;28;43680;-82
2021/12/29 02:37:43;;;;;;;49.55;14.32;;;;;;;;;;5028825;28;44141;-81
2021/12/29 02:40:10;;;;;;;51.22;14.20;;;;;;;;;;5030224;28;42924;-82
2021/12/29 02:42:40;;;;;;;63.45;14.90;;;;;;;;;;5029871;28;44028;-81
2021/12/29 02:45:09;;;;;;;57.50;14.52;;;;;;;;;;5029205;28;45368;-82
2021/12/29 02:47:36;;;;;;;62.72;15.38;;;;;;;;;;5028908;28;43720;-82
2021/12/29 02:50:03;;;;;;;59.72;16.33;;;;;;;;;;5030488;28;43107;-82
2021/12/29 02:52:30;;;;;;;48.22;13.02;;;;;;;;;;5028829;28;44955;-82
2021/12/29 02:54:57;;;;;;;83.30;16.38;;;;;;;;;;5030045;28;44778;-82
2021/12/29 02:57:24;;;;;;;61.83;14.68;;;;;;;;;;5030374;28;20057;-82
2021/12/29 02:59:51;;;;;;;57.55;13.50;;;;;;;;;;5029495;28;42865;-82
2021/12/29 03:02:18;;;;;;;48.90;13.07;;;;;;;;;;5029748;28;42674;-81
2021/12/29 03:04:45;;;;;;;73.55;14.85;;;;;;;;;;5029448;28;44025;-82
2021/12/29 03:07:12;;;;;;;54.22;12.85;;;;;;;;;;5028532;28;43776;-82
2021/12/29 03:09:40;;;;;;;57.58;13.15;;;;;;;;;;5029604;28;43733;-81
2021/12/29 03:12:07;;;;;;;51.58;13.18;;;;;;;;;;5028708;28;46022;-82
2021/12/29 03:14:34;;;;;;;52.13;12.30;;;;;;;;;;5029576;28;45357;-82
2021/12/29 03:17:01;;;;;;;79.50;12.60;;;;;;;;;;5028869;28;42276;-81
2021/12/29 03:19:28;;;;;;;66.18;12.48;;;;;;;;;;5029708;28;45022;-82
2021/12/29 03:21:54;;;;;;;69.25;12.77;;;;;;;;;;5028322;28;44815;-82
2021/12/29 03:24:21;;;;;;;74.20;12.88;;;;;;;;;;5029681;28;43911;-82
2021/12/29 03:26:48;;;;;;;43.92;9.10;;;;;;;;;;5028875;28;44934;-81
2021/12/29 03:29:15;;;;;;;46.05;8.52;;;;;;;;;;5029642;28;42862;-82
2021/12/29 03:31:43;;;;;;;48.05;8.05;;;;;;;;;;5029277;28;44053;-81
2021/12/29 03:34:10;;;;;;;29.83;7.25;;;;;;;;;;5028931;28;44199;-82
2021/12/29 03:36:37;;;;;;;50.60;7.30;;;;;;;;;;5028418;28;45061;-81
2021/12/29 03:39:04;;;;;;;36.72;7.20;;;;;;;;;;5029443;28;43679;-82
2021/12/29 03:41:31;;;;;;;58.33;7.35;;;;;;;;;;5029752;28;42639;-82
2021/12/29 03:43:57;;;;;;;64.93;8.43;;;;;;;;;;5032692;28;42920;-82
2021/12/29 03:46:26;;;;;;;54.13;7.95;;;;;;;;;;5032209;28;44985;-82
2021/12/29 03:48:52;;;;;;;;;;;;;;;;;;5033670;28;44882;-82
2021/12/29 03:51:19;;;;;;;35.65;7.32;;;;;;;;;;5032098;28;45416;-82
2021/12/29 03:53:46;;;;;;;35.45;6.15;;;;;;;;;;5032746;28;42410;-82
2021/12/29 03:56:13;;;;;;;31.10;6.15;;;;;;;;;;5031887;28;43644;-81
2021/12/29 03:58:41;;;;;;;35.75;5.82;;;;;;;;;;5033020;28;44092;-82
2021/12/29 04:01:10;;;;;;;32.80;6.15;;;;;;;;;;5032845;28;20057;-82
2021/12/29 04:03:37;;;;;;;37.80;6.15;;;;;;;;;;5032111;28;42928;-82
2021/12/29 04:06:04;;;;;;;30.30;6.07;;;;;;;;;;5032363;28;44202;-82
2021/12/29 04:08:31;;;;;;;25.27;5.70;;;;;;;;;;5032426;28;43633;-82
2021/12/29 04:10:57;;;;;;;34.13;6.75;;;;;;;;;;5031993;28;43127;-81
2021/12/29 04:13:24;;;;;;;30.90;5.63;;;;;;;;;;5032347;28;44268;-82
2021/12/29 04:15:51;;;;;;;31.35;6.05;;;;;;;;;;5032466;28;44786;-82
2021/12/29 04:18:27;;;;;;;33.00;6.38;;;;;;;;;;5031969;28;43926;-82
2021/12/29 04:20:57;;;;;;;26.77;6.10;;;;;;;;;;5032548;28;42459;-82
2021/12/29 04:23:26;;;;;;;33.97;7.25;;;;;;;;;;5031703;28;43928;-82
2021/12/29 04:25:54;;;;;;;32.72;6.88;;;;;;;;;;5031588;28;43922;-82
2021/12/29 04:28:23;;;;;;;30.45;6.97;;;;;;;;;;5031822;28;42663;-81
2021/12/29 04:30:51;;;;;;;21.27;6.70;;;;;;;;;;5031713;28;44935;-82
2021/12/29 04:33:18;;;;;;;57.25;10.98;;;;;;;;;;5031565;28;44964;-82
2021/12/29 04:35:46;;;;;;;38.15;7.45;;;;;;;;;;5032437;28;42685;-82
2021/12/29 04:38:12;;;;;;;32.83;8.15;;;;;;;;;;5030746;28;44980;-81
2021/12/29 04:40:39;;;;;;;33.40;8.20;;;;;;;;;;5032352;28;44884;-82
2021/12/29 04:43:06;;;;;;;45.58;10.75;;;;;;;;;;5030808;28;45012;-82
2021/12/29 04:45:34;;;;;;;41.13;8.70;;;;;;;;;;5030579;28;43461;-82
2021/12/29 04:48:01;;;;;;;39.83;8.48;;;;;;;;;;5031361;28;44626;-82
2021/12/29 04:50:35;;;;;;;32.17;7.63;;;;;;;;;;5031087;28;43848;-82
2021/12/29 04:53:04;;;;;;;31.45;8.15;;;;;;;;;;5028861;28;45235;-81
2021/12/29 04:55:30;;;;;;;;;;;;;;;;;;5033015;28;43645;-82
2021/12/29 04:57:58;;;;;;;35.25;9.40;;;;;;;;;;5031233;28;44089;-82
2021/12/29 05:00:25;;;;;;;24.60;7.85;;;;;;;;;;5030922;28;45406;-82
2021/12/29 05:02:53;;;;;;;25.30;7.80;;;;;;;;;;5031364;28;45104;-82
2021/12/29 05:10:32;;;;;;;13.30;5.25;;;;;;;;;;5031816;28;43884;-82
2021/12/29 05:12:59;;;;;;;18.38;6.07;;;;;;;;;;5030331;28;44914;-83
2021/12/29 05:15:26;;;;;;;22.27;6.30;;;;;;;;;;5032935;28;44805;-83
2021/12/29 05:17:54;;;;;;;15.60;5.72;;;;;;;;;;5029208;28;44985;-82
2021/12/29 05:20:21;;;;;;;15.27;5.68;;;;;;;;;;5028922;28;43996;-82
2021/12/29 05:22:48;;;;;;;19.55;6.07;;;;;;;;;;5028906;28;42715;-82
2021/12/29 05:25:15;;;;;;;22.67;6.57;;;;;;;;;;5029749;28;43910;-82
2021/12/29 05:27:42;;;;;;;25.67;7.32;;;;;;;;;;5031542;28;20058;-82
2021/12/29 05:30:09;;;;;;;24.98;7.18;;;;;;;;;;5031165;28;42933;-82
2021/12/29 05:32:36;;;;;;;36.08;8.20;;;;;;;;;;5030731;28;44957;-82
2021/12/29 05:35:03;;;;;;;19.77;6.53;;;;;;;;;;5030466;28;45102;-82
2021/12/29 05:37:29;;;;;;;15.30;5.15;;;;;;;;;;5031073;28;45067;-82
2021/12/29 05:39:56;;;;;;;20.63;5.20;;;;;;;;;;5030493;28;45235;-82
2021/12/29 05:42:23;;;;;;;14.10;4.75;;;;;;;;;;5029683;28;44608;-82
2021/12/29 05:44:50;;;;;;;17.90;4.53;;;;;;;;;;5031231;28;42894;-82
2021/12/29 05:47:17;;;;;;;20.02;4.88;;;;;;;;;;5030771;28;43166;-82
2021/12/29 05:49:43;;;;;;;12.00;3.42;;;;;;;;;;5030212;28;43018;-82
2021/12/29 05:52:10;;;;;;;7.43;2.90;;;;;;;;;;5030312;28;42894;-82
2021/12/29 05:54:37;;;;;;;17.83;4.18;;;;;;;;;;5030085;28;43667;-81
2021/12/29 05:57:03;;;;;;;12.45;3.47;;;;;;;;;;5030424;28;45206;-82
2021/12/29 05:59:35;;;;;;;15.95;4.07;;;;;;;;;;5031124;28;44888;-82
2021/12/29 06:02:02;;;;;;;16.67;4.97;;;;;;;;;;5029301;28;44845;-81
2021/12/29 06:04:30;;;;;;;17.42;4.70;;;;;;;;;;5030332;28;45666;-82
2021/12/29 06:06:57;;;;;;;17.50;4.32;;;;;;;;;;5030556;28;44875;-82
2021/12/29 06:09:24;;;;;;;21.98;5.35;;;;;;;;;;5030792;28;44978;-82
2021/12/29 06:11:50;;;;;;;27.20;6.53;;;;;;;;;;5029861;28;44940;-81
2021/12/29 06:14:17;;;;;;;35.78;7.13;;;;;;;;;;5030346;28;43633;-82
2021/12/29 06:16:44;;;;;;;32.22;7.38;;;;;;;;;;5029473;28;43613;-81
2021/12/29 06:19:10;;;;;;;29.35;6.65;;;;;;;;;;5030160;28;44951;-81
2021/12/29 06:21:37;;;;;;;45.78;8.18;;;;;;;;;;5030011;28;42700;-81
2021/12/29 06:24:04;;;;;;;34.60;7.32;;;;;;;;;;5029714;28;43898;-82
2021/12/29 06:26:31;;;;;;;32.08;7.03;;;;;;;;;;5029996;28;41615;-81
2021/12/29 06:28:58;;;;;;;61.25;9.55;;;;;;;;;;5030013;28;42612;-81
2021/12/29 06:31:25;;;;;;;48.72;8.88;;;;;;;;;;5028711;28;43849;-82
2021/12/29 06:33:52;;;;;;;35.13;7.60;;;;;;;;;;5030481;28;42553;-82
2021/12/29 06:36:18;;;;;;;43.90;7.07;;;;;;;;;;5029725;28;43002;-81
2021/12/29 06:38:45;;;;;;;46.28;7.85;;;;;;;;;;5029817;28;42924;-81
2021/12/29 06:41:12;;;;;;;47.15;7.80;;;;;;;;;;5030120;28;43712;-81
2021/12/29 06:43:39;;;;;;;67.03;9.68;;;;;;;;;;5029666;28;44761;-81
2021/12/29 06:46:05;;;;;;;55.17;9.07;;;;;;;;;;5029986;28;20057;-81
2021/12/29 06:48:32;;;;;;;61.60;11.25;;;;;;;;;;5030353;28;43908;-82
2021/12/29 06:50:59;;;;;;;37.92;7.88;;;;;;;;;;5028963;28;44018;-81
2021/12/29 06:53:29;;;;;;;48.88;8.95;;;;;;;;;;5029617;28;42702;-81
2021/12/29 06:55:56;;;;;;;43.90;8.57;;;;;;;;;;5030066;28;42921;-81
2021/12/29 06:58:22;;;;;;;38.50;8.18;;;;;;;;;;5029162;28;45029;-81
2021/12/29 07:00:49;;;;;;;50.42;9.15;;;;;;;;;;5029894;28;43576;-81
2021/12/29 07:03:16;;;;;;;42.92;9.40;;;;;;;;;;5029707;28;44957;-82
2021/12/29 07:05:43;;;;;;;49.22;9.23;;;;;;;;;;5029213;28;44888;-81
2021/12/29 07:08:09;;;;;;;50.92;9.15;;;;;;;;;;5029354;28;42687;-81
2021/12/29 07:10:36;;;;;;;53.42;9.95;;;;;;;;;;5030123;28;42371;-81
2021/12/29 07:13:03;;;;;;;43.45;9.25;;;;;;;;;;5028855;28;45286;-80
2021/12/29 07:15:29;;;;;;;52.83;9.93;;;;;;;;;;5029206;28;44977;-81
2021/12/29 07:17:56;;;;;;;47.47;9.77;;;;;;;;;;5028704;28;44023;-81
2021/12/29 07:20:23;;;;;;;48.28;10.48;;;;;;;;;;5029067;28;44616;-81
2021/12/29 07:22:49;;;;;;;38.38;9.85;;;;;;;;;;5028823;28;45482;-81
2021/12/29 07:25:16;;;;;;;42.03;10.82;;;;;;;;;;5029773;28;43038;-81
2021/12/29 07:27:43;;;;;;;46.70;11.20;;;;;;;;;;5028730;28;42746;-81
2021/12/29 07:30:11;;;;;;;45.20;9.93;;;;;;;;;;5029838;28;43779;-81
2021/12/29 07:32:37;;;;;;;33.88;10.55;;;;;;;;;;5029041;28;45338;-81
2021/12/29 07:35:04;;;;;;;48.90;10.40;;;;;;;;;;5029130;28;43884;-81
2021/12/29 07:37:31;;;;;;;54.90;10.32;;;;;;;;;;5029519;28;44911;-81
2021/12/29 07:39:59;;;;;;;42.40;9.80;;;;;;;;;;5029620;28;45085;-81
2021/12/29 07:42:26;;;;;;;46.28;9.15;;;;;;;;;;5028163;28;44069;-81
2021/12/29 07:44:53;;;;;;;50.53;12.07;;;;;;;;;;5029234;28;43827;-82
2021/12/29 07:47:19;;;;;;;45.80;10.82;;;;;;;;;;5028165;28;45097;-81
2021/12/29 07:49:49;;;;;;;56.50;11.85;;;;;;;;;;5029256;28;42851;-81
2021/12/29 07:52:16;;;;;;;51.60;10.52;;;;;;;;;;5028333;28;42671;-82
2021/12/29 07:54:43;;;;;;;52.00;11.20;;;;;;;;;;5028580;28;45099;-81
2021/12/29 07:57:10;;;;;;;42.25;10.43;;;;;;;;;;5028915;28;42937;-81
2021/12/29 07:59:36;;;;;;;40.20;11.40;;;;;;;;;;5029523;28;42736;-81
2021/12/29 08:02:03;;;;;;;46.38;11.82;;;;;;;;;;5027859;28;45100;-81
2021/12/29 08:04:30;;;;;;;44.15;11.70;;;;;;;;;;5029225;28;43881;-82
2021/12/29 08:06:57;;;;;;;54.80;12.25;;;;;;;;;;5027833;28;42499;-82
2021/12/29 08:09:25;;;;;;;39.13;10.55;;;;;;;;;;5028767;28;43949;-82
2021/12/29 08:11:52;;;;;;;41.13;10.80;;;;;;;;;;5028976;28;44018;-81
2021/12/29 08:14:18;;;;;;;42.45;10.48;;;;;;;;;;5029225;28;44709;-81
2021/12/29 08:16:45;;;;;;;37.10;11.05;;;;;;;;;;5027559;28;42871;-81
2021/12/29 08:19:12;;;;;;;39.95;11.75;;;;;;;;;;5029315;28;35525;-81
2021/12/29 08:21:39;;;;;;;36.75;10.63;;;;;;;;;;5028578;28;45022;-81
2021/12/29 08:24:05;;;;;;;38.05;11.77;;;;;;;;;;5027966;28;43941;-82
2021/12/29 08:26:32;;;;;;;35.72;10.85;;;;;;;;;;5028307;28;42777;-81
2021/12/29 08:29:01;;;;;;;44.65;12.05;;;;;;;;;;5031423;28;44354;-82
2021/12/29 08:31:28;;;;;;;52.72;13.35;;;;;;;;;;5030589;28;44958;-81
2021/12/29 08:33:55;;;;;;;60.47;13.70;;;;;;;;;;5032559;28;44612;-82
2021/12/29 08:36:23;;;;;;;60.83;12.73;;;;;;;;;;5030612;28;45008;-81
2021/12/29 08:38:49;;;;;;;50.83;11.70;;;;;;;;;;5032891;28;44839;-81
2021/12/29 08:41:16;;;;;;;46.03;11.65;;;;;;;;;;5031905;28;44984;-82
2021/12/29 08:43:45;;;;;;;43.95;11.55;;;;;;;;;;5031469;28;45068;-82
2021/12/29 08:46:12;;;;;;;50.55;13.07;;;;;;;;;;5031373;28;44730;-82
2021/12/29 08:48:42;;;;;;;45.13;13.73;;;;;;;;;;5032075;28;43520;-81
2021/12/29 08:51:09;;;;;;;64.85;13.73;;;;;;;;;;5030315;28;45436;-82
2021/12/29 08:53:36;;;;;;;53.13;12.95;;;;;;;;;;5032784;28;44850;-82
2021/12/29 08:56:04;;;;;;;34.13;12.45;;;;;;;;;;5034165;28;45808;-82
2021/12/29 08:58:31;;;;;;;37.78;11.93;;;;;;;;;;5030357;28;43638;-84
2021/12/29 09:01:00;;;;;;;52.22;13.05;;;;;;;;;;5031466;28;42895;-84
2021/12/29 09:03:28;;;;;;;38.33;12.02;;;;;;;;;;5031478;28;43988;-82
2021/12/29 09:05:55;;;;;;;37.28;12.25;;;;;;;;;;5030965;28;44740;-81
2021/12/29 09:08:21;;;;;;;40.03;11.65;;;;;;;;;;5030043;28;44984;-83
2021/12/29 09:10:48;;;;;;;35.33;12.45;;;;;;;;;;5029633;28;44946;-82
2021/12/29 09:13:15;;;;;;;29.73;11.23;;;;;;;;;;5030359;28;44843;-81
2021/12/29 09:15:44;;;;;;;35.05;11.88;;;;;;;;;;5029412;28;45380;-81
2021/12/29 09:18:11;;;;;;;33.63;11.75;;;;;;;;;;5029690;28;45915;-82
2021/12/29 09:20:44;;;;;;;33.30;11.48;;;;;;;;;;5028798;28;42665;-81
2021/12/29 09:23:14;;;;;;;32.85;11.05;;;;;;;;;;5031150;28;45324;-85
2021/12/29 09:25:45;;;;;;;28.35;11.68;;;;;;;;;;5027369;28;20054;-83
2021/12/29 09:28:13;;;;;;;40.33;11.75;;;;;;;;;;5018512;28;44008;-82
2021/12/29 09:30:43;;;;;;;33.55;11.70;;;;;;;;;;5020778;28;42224;-84
2021/12/29 09:33:10;;;;;;;29.02;10.68;;;;;;;;;;5019551;28;43690;-82
2021/12/29 09:35:37;;;;;;;37.20;12.63;;;;;;;;;;5019742;28;43887;-82
2021/12/29 09:38:05;;;;;;;33.42;12.45;;;;;;;;;;5018819;28;45209;-82
2021/12/29 09:40:32;;;;;;;26.67;10.82;;;;;;;;;;5020493;28;42232;-82
2021/12/29 09:42:59;;;;;;;29.83;10.40;;;;;;;;;;5020453;28;43876;-82
2021/12/29 09:45:26;;;;;;;32.03;11.50;;;;;;;;;;5020096;28;45196;-82
2021/12/29 09:47:57;;;;;;;25.73;9.98;;;;;;;;;;5017660;28;42956;-83
2021/12/29 09:50:24;;;;;;;25.83;10.77;;;;;;;;;;5020152;28;45566;-82
2021/12/29 09:52:51;;;;;;;26.13;9.48;;;;;;;;;;5019986;28;43665;-82
2021/12/29 09:55:19;;;;;;;23.77;10.35;;;;;;;;;;5020080;28;45007;-82
2021/12/29 09:57:48;;;;;;;25.08;9.45;;;;;;;;;;5020957;28;43942;-82
2021/12/29 10:00:26;;;;;;;23.95;10.27;;;;;;;;;;5030760;28;43572;-82
2021/12/29 10:02:54;;;;;;;25.15;10.05;;;;;;;;;;5017756;28;43907;-82
2021/12/29 10:05:22;;;;;;;28.55;10.77;;;;;;;;;;5010615;28;44896;-83
2021/12/29 10:08:04;;;;;;;38.38;11.95;;;;;;;;;;5009561;28;44775;-83
2021/12/29 10:10:31;;;;;;;22.77;10.20;;;;;;;;;;5009915;28;44965;-84
2021/12/29 10:12:58;;;;;;;27.40;11.23;;;;;;;;;;5009666;28;44642;-82
2021/12/29 10:15:36;;;;;;;30.52;11.35;;;;;;;;;;5009987;28;44958;-82
2021/12/29 10:18:05;;;;;;;18.60;9.77;;;;;;;;;;5007948;28;44941;-81
2021/12/29 10:20:32;;;;;;;23.30;10.50;;;;;;;;;;5046433;28;43644;-84
2021/12/29 10:22:59;;;;;;;23.70;11.43;;;;;;;;;;5045904;28;42854;-82
2021/12/29 10:25:33;;;;;;;21.85;10.35;;;;;;;;;;5047563;28;43036;-83
2021/12/29 10:28:01;;;;;;;24.30;10.90;;;;;;;;;;5047990;28;20054;-82
2021/12/29 10:30:29;;;;;;;28.42;10.20;;;;;;;;;;5047370;28;45006;-82
2021/12/29 10:32:56;;;;;;;23.77;10.13;;;;;;;;;;5046172;28;43666;-82
2021/12/29 10:35:25;;;;;;;23.43;10.70;;;;;;;;;;5047414;28;43811;-81
2021/12/29 10:37:52;;;;;;;25.45;10.35;;;;;;;;;;5046049;28;42893;-82
2021/12/29 10:40:29;;;;;;;23.55;11.40;;;;;;;;;;5048045;28;42070;-81
2021/12/29 10:43:00;;;;;;;27.52;10.48;;;;;;;;;;5038352;28;43131;-82
2021/12/29 10:45:28;;;;;;;23.10;10.95;;;;;;;;;;5044828;28;20065;-82
2021/12/29 10:47:55;;;;;;;22.55;10.25;;;;;;;;;;5043054;28;45065;-82
2021/12/29 10:50:22;;;;;;;21.00;9.68;;;;;;;;;;5043262;28;20529;-83
2021/12/29 10:52:54;;;;;;;20.42;9.73;;;;;;;;;;5041677;28;44875;-82
2021/12/29 10:55:20;;;;;;;26.15;10.93;;;;;;;;;;5046330;28;45364;-82
2021/12/29 10:57:59;;;;;;;25.17;10.65;;;;;;;;;;5044368;28;44976;-82
2021/12/29 11:00:41;;;;;;;13.57;9.32;;;;;;;;;;5045909;28;43711;-81
2021/12/29 11:03:13;;;;;;;17.45;8.82;;;;;;;;;;5039468;28;44952;-82
2021/12/29 11:05:47;;;;;;;16.48;9.95;;;;;;;;;;5035468;28;43612;-82
2021/12/29 11:08:14;;;;;;;21.35;10.63;;;;;;;;;;5035775;28;44771;-82
2021/12/29 11:10:41;;;;;;;22.95;10.15;;;;;;;;;;5036330;28;44946;-81
2021/12/29 11:13:12;;;;;;;22.73;9.80;;;;;;;;;;5034645;28;45078;-81
2021/12/29 11:15:41;;;;;;;23.00;11.88;;;;;;;;;;5035601;28;42382;-82
2021/12/29 11:18:10;;;;;;;19.05;10.23;;;;;;;;;;5034994;28;44925;-82
2021/12/29 11:20:39;;;;;;;19.85;11.10;;;;;;;;;;5036500;28;43246;-81
2021/12/29 11:23:10;;;;;;;25.38;11.68;;;;;;;;;;5034226;28;45295;-82
2021/12/29 11:25:37;;;;;;;17.88;9.80;;;;;;;;;;5034259;28;42936;-81
2021/12/29 11:28:05;;;;;;;20.10;9.52;;;;;;;;;;5035586;28;43837;-82
2021/12/29 11:30:32;;;;;;;15.57;9.75;;;;;;;;;;5036245;28;43549;-82
2021/12/29 11:33:04;;;;;;;18.35;9.55;;;;;;;;;;5033129;28;44970;-81
2021/12/29 11:35:36;;;;;;;14.93;9.05;;;;;;;;;;5037017;28;44717;-82
2021/12/29 11:38:03;;;;;;;20.85;10.73;;;;;;;;;;5035411;28;43989;-82
2021/12/29 11:40:32;;;;;;;15.25;10.02;;;;;;;;;;5036199;28;20520;-82
2021/12/29 11:42:59;;;;;;;16.83;8.87;;;;;;;;;;5034414;28;45338;-82
2021/12/29 11:45:26;;;;;;;17.08;9.10;;;;;;;;;;5036564;28;44357;-82
2021/12/29 11:47:53;;;;;;;18.17;10.40;;;;;;;;;;5034256;28;44648;-82
2021/12/29 11:50:25;;;;;;;18.20;9.65;;;;;;;;;;5035975;28;46033;-82
2021/12/29 11:52:58;;;;;;;16.77;9.90;;;;;;;;;;5035012;28;43880;-82
2021/12/29 11:55:29;;;;;;;22.02;11.02;;;;;;;;;;5034571;28;45075;-82
2021/12/29 11:58:06;;;;;;;13.70;8.90;;;;;;;;;;5034820;28;43932;-82
2021/12/29 12:00:33;;;;;;;15.02;10.27;;;;;;;;;;5035458;28;42922;-82
2021/12/29 12:03:08;;;;;;;12.50;8.40;;;;;;;;;;5037146;28;43876;-82
2021/12/29 12:05:37;;;;;;;13.18;9.38;;;;;;;;;;5038355;28;44653;-82
2021/12/29 12:08:05;;;;;;;21.02;9.48;;;;;;;;;;5037191;28;44707;-82
2021/12/29 12:10:35;;;;;;;23.58;11.48;;;;;;;;;;5039526;28;43977;-82
2021/12/29 12:13:05;;;;;;;21.70;12.05;;;;;;;;;;5037504;28;42441;-82
2021/12/29 12:15:33;;;;;;;16.33;10.43;;;;;;;;;;5037834;28;43286;-82
2021/12/29 12:18:09;;;;;;;;;;;;;;;;;;5039218;28;44100;-82
2021/12/29 12:20:40;;;;;;;17.58;11.55;;;;;;;;;;5040223;28;45007;-82
2021/12/29 12:23:07;;;;;;;18.15;12.77;;;;;;;;;;5037113;28;43455;-82
2021/12/29 12:25:37;;;;;;;21.85;13.95;;;;;;;;;;5039496;28;20797;-82
2021/12/29 12:28:13;;;;;;;18.20;11.70;;;;;;;;;;5038391;28;45351;-82
2021/12/29 12:30:45;;;;;;;26.02;12.27;;;;;;;;;;5038618;28;42950;-83
2021/12/29 12:33:25;;;;;;;19.73;12.32;;;;;;;;;;5038947;28;42946;-83
2021/12/29 12:35:53;;;;;;;21.80;12.45;;;;;;;;;;5038637;28;44792;-82
2021/12/29 12:38:22;;;;;;;26.17;12.18;;;;;;;;;;5037943;28;42976;-83
2021/12/29 12:41:06;;;;;;;19.92;11.32;;;;;;;;;;5037685;28;44010;-83
2021/12/29 12:43:35;;;;;;;21.08;12.57;;;;;;;;;;5038290;28;43933;-83
2021/12/29 12:46:02;;;;;;;27.70;13.68;;;;;;;;;;5037746;28;44946;-82
2021/12/29 12:48:31;;;;;;;27.73;12.93;;;;;;;;;;5039437;28;42780;-83
2021/12/29 12:51:00;;;;;;;26.45;12.73;;;;;;;;;;5031187;28;42558;-83
2021/12/29 12:53:33;;;;;;;16.02;10.68;;;;;;;;;;5036555;28;45386;-84
2021/12/29 12:56:02;;;;;;;26.05;13.10;;;;;;;;;;5035726;28;44980;-85
2021/12/29 12:58:35;;;;;;;18.17;11.20;;;;;;;;;;5036240;28;42925;-82
2021/12/29 13:01:05;;;;;;;20.85;11.82;;;;;;;;;;5038081;28;43578;-83
2021/12/29 13:03:33;;;;;;;21.67;11.65;;;;;;;;;;5038863;28;43264;-83
2021/12/29 13:06:04;;;;;;;32.45;10.13;;;;;;;;;;5039227;28;20127;-82
2021/12/29 13:08:37;;;;;;;19.85;10.93;;;;;;;;;;5039081;28;45707;-85
2021/12/29 13:11:05;;;;;;;22.48;10.70;;;;;;;;;;5009303;28;40569;-82
2021/12/29 13:13:33;;;;;;;17.20;11.15;;;;;;;;;;5009279;28;42989;-82
2021/12/29 13:16:02;;;;;;;20.77;10.20;;;;;;;;;;5009242;28;43710;-82
2021/12/29 13:18:29;;;;;;;18.88;9.73;;;;;;;;;;5010555;28;42927;-82
2021/12/29 13:20:57;;;;;;;22.42;10.10;;;;;;;;;;5010273;28;43117;-82
2021/12/29 13:23:24;;;;;;;21.38;9.90;;;;;;;;;;5010765;28;42586;-83
2021/12/29 13:25:52;;;;;;;20.25;10.15;;;;;;;;;;5010235;28;44131;-84
2021/12/29 13:28:20;;;;;;;17.65;10.27;;;;;;;;;;5010620;28;43961;-83
2021/12/29 13:30:49;;;;;;;17.55;10.00;;;;;;;;;;5010500;28;45638;-86
2021/12/29 13:33:20;;;;;;;20.13;10.68;;;;;;;;;;5009621;28;44857;-82
2021/12/29 13:35:48;;;;;;;17.67;9.80;;;;;;;;;;5016796;28;44688;-82
2021/12/29 13:38:18;;;;;;;22.98;9.27;;;;;;;;;;5029595;28;23741;-82
2021/12/29 13:40:47;;;;;;;22.92;9.82;;;;;;;;;;5027893;28;44144;-82
2021/12/29 13:43:18;;;;;;;24.15;9.57;;;;;;;;;;5028208;28;42658;-82
2021/12/29 13:45:47;;;;;;;20.67;9.50;;;;;;;;;;5028845;28;43412;-82
2021/12/29 13:48:17;;;;;;;17.58;9.48;;;;;;;;;;5028700;28;44926;-83
2021/12/29 13:51:04;;;;;;;23.10;9.38;;;;;;;;;;5028219;28;45375;-85
2021/12/29 13:53:37;;;;;;;24.33;10.15;;;;;;;;;;5029495;28;43862;-83
2021/12/29 13:56:05;;;;;;;25.85;9.73;;;;;;;;;;5025791;28;45015;-82
2021/12/29 13:58:32;;;;;;;17.77;9.27;;;;;;;;;;5028026;28;43460;-83
2021/12/29 14:00:59;;;;;;;24.17;10.25;;;;;;;;;;5030107;28;20053;-83
2021/12/29 14:03:26;;;;;;;28.60;11.23;;;;;;;;;;5030590;28;42748;-86
2021/12/29 14:05:58;;;;;;;32.67;12.15;;;;;;;;;;5029148;28;44275;-83
2021/12/29 14:08:25;;;;;;;26.35;10.98;;;;;;;;;;5027481;28;43763;-83
2021/12/29 14:10:52;;;;;;;34.45;12.52;;;;;;;;;;5036494;28;43861;-82
2021/12/29 14:13:20;;;;;;;32.40;11.05;;;;;;;;;;5036159;28;44007;-83
2021/12/29 14:15:48;;;;;;;22.90;10.95;;;;;;;;;;5037296;28;43663;-82
2021/12/29 14:18:21;;;;;;;21.30;9.90;;;;;;;;;;5037168;28;45055;-82
2021/12/29 14:20:49;;;;;;;30.63;11.48;;;;;;;;;;5035723;28;44252;-82
2021/12/29 14:23:16;;;;;;;35.58;13.07;;;;;;;;;;5036269;28;44708;-82
2021/12/29 14:25:46;;;;;;;28.45;12.48;;;;;;;;;;5037065;28;43542;-82
2021/12/29 14:28:15;;;;;;;27.50;11.27;;;;;;;;;;5035980;28;44966;-82
2021/12/29 14:30:44;;;;;;;21.42;11.25;;;;;;;;;;5035820;28;44052;-83
2021/12/29 14:33:12;;;;;;;30.83;13.13;;;;;;;;;;5038005;28;43858;-83
2021/12/29 14:35:48;;;;;;;30.83;13.77;;;;;;;;;;5035854;28;42654;-83
2021/12/29 14:38:15;;;;;;;33.15;14.50;;;;;;;;;;5036496;28;44103;-83